createdAt,value
2022-12-14T00:00:19.029Z,98857.16
2022-12-14T00:02:48.563Z,98855.38
2022-12-14T00:05:19.967Z,98855.44
2022-12-14T00:07:49.058Z,98847.63
2022-12-14T00:10:16.863Z,98840.72
2022-12-14T00:12:44.544Z,98835.59
2022-12-14T00:15:12.418Z,98829.59
2022-12-14T00:17:40.048Z,98826.16
2022-12-14T00:20:08.980Z,98820.16
2022-12-14T00:22:36.550Z,98822.91
2022-12-14T00:25:04.154Z,98823.97
2022-12-14T00:27:34.000Z,98822.41
2022-12-14T00:30:01.634Z,98821.66
2022-12-14T00:32:29.422Z,98818.25
2022-12-14T00:34:57.053Z,98817.41
2022-12-14T00:37:24.616Z,98813.94
2022-12-14T00:39:53.479Z,98814.88
2022-12-14T00:42:21.120Z,98803.63
2022-12-14T00:44:49.112Z,98802.47
2022-12-14T00:47:16.661Z,98800.53
2022-12-14T00:49:44.303Z,98789.94
2022-12-14T00:52:16.307Z,98785.50
2022-12-14T00:54:43.915Z,98795.88
2022-12-14T00:57:11.641Z,98783.75
2022-12-14T00:59:39.195Z,98788.16
2022-12-14T01:02:07.183Z,98789.94
2022-12-14T01:04:34.919Z,98786.56
2022-12-14T01:07:02.475Z,98794.41
2022-12-14T01:09:30.104Z,98791.78
2022-12-14T01:11:57.697Z,98783.19
2022-12-14T01:14:25.224Z,98778.97
2022-12-14T01:16:52.822Z,98772.16
2022-12-14T01:19:20.419Z,98769.66
2022-12-14T01:21:48.001Z,98762.84
2022-12-14T01:24:16.043Z,98763.75
2022-12-14T01:26:43.663Z,98752.50
2022-12-14T01:29:11.574Z,98757.66
2022-12-14T01:31:39.270Z,98756.72
2022-12-14T01:34:08.606Z,98769.66
2022-12-14T01:36:36.153Z,98766.94
2022-12-14T01:39:03.724Z,98746.84
2022-12-14T01:41:31.332Z,98744.03
2022-12-14T01:43:58.865Z,98756.06
2022-12-14T01:46:26.871Z,98753.47
2022-12-14T01:48:54.529Z,98747.34
2022-12-14T01:51:22.063Z,98758.53
2022-12-14T01:53:49.612Z,98742.75
2022-12-14T01:56:17.196Z,98743.53
2022-12-14T01:58:45.137Z,98738.16
2022-12-14T02:01:12.713Z,98735.56
2022-12-14T02:03:40.386Z,98721.91
2022-12-14T02:06:08.468Z,98723.81
2022-12-14T02:08:36.404Z,98730.94
2022-12-14T02:11:04.349Z,98718.84
2022-12-14T02:13:32.003Z,98716.13
2022-12-14T02:15:59.603Z,98719.53
2022-12-14T02:18:27.254Z,98712.75
2022-12-14T02:20:54.819Z,98711.25
2022-12-14T02:23:22.826Z,98707.06
2022-12-14T02:25:50.444Z,98705.56
2022-12-14T02:28:17.987Z,98693.50
2022-12-14T02:30:46.005Z,98692.88
2022-12-14T02:33:13.590Z,98697.31
2022-12-14T02:35:41.570Z,98681.53
2022-12-14T02:38:09.120Z,98676.09
2022-12-14T02:40:36.719Z,98675.88
2022-12-14T02:43:04.317Z,98672.22
2022-12-14T02:45:31.863Z,98667.78
2022-12-14T02:48:00.144Z,98672.06
2022-12-14T02:50:27.726Z,98666.25
2022-12-14T02:52:55.777Z,98663.00
2022-12-14T02:55:23.450Z,98651.13
2022-12-14T02:57:50.988Z,98648.81
2022-12-14T03:00:18.961Z,98646.50
2022-12-14T03:02:46.727Z,98638.03
2022-12-14T03:05:14.462Z,98644.28
2022-12-14T03:07:43.430Z,98633.84
2022-12-14T03:10:11.045Z,98634.47
2022-12-14T03:12:39.014Z,98635.03
2022-12-14T03:15:06.618Z,98624.44
2022-12-14T03:17:34.301Z,98637.31
2022-12-14T03:20:02.676Z,98632.03
2022-12-14T03:22:30.259Z,98631.97
2022-12-14T03:24:58.244Z,98617.03
2022-12-14T03:27:25.814Z,98610.00
2022-12-14T03:29:53.409Z,98608.31
2022-12-14T03:32:21.538Z,98611.84
2022-12-14T03:34:49.097Z,98605.63
2022-12-14T03:37:17.498Z,98595.91
2022-12-14T03:39:45.310Z,98593.91
2022-12-14T03:42:12.917Z,98589.47
2022-12-14T03:44:48.889Z,98591.16
2022-12-14T03:47:17.664Z,98591.94
2022-12-14T03:49:45.219Z,98590.94
2022-12-14T03:52:16.669Z,98580.22
2022-12-14T03:54:44.310Z,98573.09
2022-12-14T03:57:11.888Z,98573.00
2022-12-14T03:59:39.839Z,98566.94
2022-12-14T04:02:07.576Z,98568.69
2022-12-14T04:04:35.278Z,98572.22
2022-12-14T04:07:03.719Z,98559.25
2022-12-14T04:09:31.355Z,98562.81
2022-12-14T04:12:16.858Z,98563.03
2022-12-14T04:15:01.693Z,98558.81
2022-12-14T04:17:47.205Z,98555.63
2022-12-14T04:20:17.043Z,98560.34
2022-12-14T04:22:45.506Z,98555.44
2022-12-14T04:25:30.571Z,98560.03
2022-12-14T04:27:58.172Z,98563.69
2022-12-14T04:30:24.709Z,98556.91
2022-12-14T04:32:53.273Z,98555.13
2022-12-14T04:35:20.904Z,98555.00
2022-12-14T04:37:48.688Z,98546.09
2022-12-14T04:40:16.486Z,98544.19
2022-12-14T04:42:44.189Z,98553.69
2022-12-14T04:45:12.356Z,98553.78
2022-12-14T04:47:40.027Z,98553.91
2022-12-14T04:50:07.635Z,98549.63
2022-12-14T04:52:35.240Z,98549.63
2022-12-14T04:55:03.054Z,98553.16
2022-12-14T04:57:31.443Z,98547.06
2022-12-14T04:59:59.441Z,98536.75
2022-12-14T05:02:27.150Z,98535.84
2022-12-14T05:04:56.149Z,98532.31
2022-12-14T05:07:23.725Z,98533.94
2022-12-14T05:09:53.729Z,98535.69
2022-12-14T05:12:21.316Z,98532.31
2022-12-14T05:14:48.912Z,98524.50
2022-12-14T05:17:16.592Z,98523.56
2022-12-14T05:19:44.298Z,98513.00
2022-12-14T05:22:21.866Z,98506.72
2022-12-14T05:24:49.470Z,98498.59
2022-12-14T05:27:17.076Z,98500.91
2022-12-14T05:29:44.754Z,98500.56
2022-12-14T05:32:12.404Z,98490.94
2022-12-14T05:34:40.351Z,98489.09
2022-12-14T05:37:11.592Z,98485.56
2022-12-14T05:39:42.280Z,98484.69
2022-12-14T05:42:09.911Z,98472.53
2022-12-14T05:44:37.542Z,98474.28
2022-12-14T05:47:05.204Z,98464.78
2022-12-14T05:49:32.851Z,98465.69
2022-12-14T05:52:00.539Z,98464.09
2022-12-14T05:54:28.153Z,98462.34
2022-12-14T05:56:55.921Z,98455.44
2022-12-14T05:59:23.787Z,98456.38
2022-12-14T06:01:51.565Z,98452.91
2022-12-14T06:04:19.822Z,98455.59
2022-12-14T06:06:47.481Z,98458.28
2022-12-14T06:09:16.347Z,98457.50
2022-12-14T06:11:46.990Z,98458.44
2022-12-14T06:14:14.690Z,98462.88
2022-12-14T06:16:42.523Z,98461.22
2022-12-14T06:19:10.268Z,98452.63
2022-12-14T06:21:37.986Z,98444.81
2022-12-14T06:24:06.150Z,98454.38
2022-12-14T06:26:34.422Z,98449.19
2022-12-14T06:29:02.092Z,98439.63
2022-12-14T06:31:30.094Z,98437.00
2022-12-14T06:33:58.014Z,98434.31
2022-12-14T06:36:26.037Z,98437.75
2022-12-14T06:38:53.754Z,98428.28
2022-12-14T06:41:21.533Z,98425.56
2022-12-14T06:43:49.621Z,98436.84
2022-12-14T06:46:17.486Z,98431.56
2022-12-14T06:48:46.489Z,98429.72
2022-12-14T06:51:14.158Z,98427.97
2022-12-14T06:53:41.930Z,98422.75
2022-12-14T06:56:09.738Z,98427.03
2022-12-14T06:58:37.356Z,98427.84
2022-12-14T07:01:05.443Z,98426.19
2022-12-14T07:03:33.337Z,98436.59
2022-12-14T07:06:01.168Z,98442.66
2022-12-14T07:08:29.122Z,98446.19
2022-12-14T07:11:02.093Z,98440.97
2022-12-14T07:13:30.792Z,98444.41
2022-12-14T07:15:58.973Z,98436.59
2022-12-14T07:18:26.730Z,98433.06
2022-12-14T07:20:54.367Z,98436.53
2022-12-14T07:23:27.585Z,98433.81
2022-12-14T07:25:56.962Z,98443.25
2022-12-14T07:28:25.088Z,98442.41
2022-12-14T07:30:52.875Z,98440.63
2022-12-14T07:33:20.583Z,98444.03
2022-12-14T07:35:48.802Z,98444.72
2022-12-14T07:38:17.940Z,98451.59
2022-12-14T07:40:45.628Z,98449.94
2022-12-14T07:43:13.467Z,98458.56
2022-12-14T07:45:41.187Z,98449.06
2022-12-14T07:48:08.945Z,98454.28
2022-12-14T07:50:39.729Z,98454.09
2022-12-14T07:53:07.499Z,98460.94
2022-12-14T07:55:35.239Z,98457.41
2022-12-14T07:58:03.053Z,98460.69
2022-12-14T08:00:30.770Z,98466.69
2022-12-14T08:03:00.267Z,98468.19
2022-12-14T08:05:28.310Z,98461.13
2022-12-14T08:07:56.131Z,98462.84
2022-12-14T08:10:23.944Z,98461.06
2022-12-14T08:12:51.955Z,98462.66
2022-12-14T08:15:21.096Z,98458.19
2022-12-14T08:17:48.863Z,98456.34
2022-12-14T08:20:16.729Z,98470.97
2022-12-14T08:22:44.528Z,98469.16
2022-12-14T08:25:12.390Z,98464.78
2022-12-14T08:27:41.480Z,98472.28
2022-12-14T08:30:09.576Z,98476.31
2022-12-14T08:32:37.874Z,98477.91
2022-12-14T08:35:05.949Z,98487.44
2022-12-14T08:37:33.700Z,98481.13
2022-12-14T08:40:04.279Z,98476.59
2022-12-14T08:42:32.281Z,98476.50
2022-12-14T08:44:59.996Z,98474.75
2022-12-14T08:47:27.762Z,98472.75
2022-12-14T08:49:55.834Z,98470.78
2022-12-14T08:52:24.116Z,98476.59
2022-12-14T08:54:52.356Z,98475.59
2022-12-14T08:57:20.378Z,98471.03
2022-12-14T09:00:03.627Z,98470.88
2022-12-14T09:02:33.982Z,98475.00
2022-12-14T09:05:01.769Z,98481.72
2022-12-14T09:07:29.641Z,98473.56
2022-12-14T09:09:57.385Z,98474.31
2022-12-14T09:12:25.153Z,98472.56
2022-12-14T09:14:54.330Z,98468.00
2022-12-14T09:17:22.174Z,98462.78
2022-12-14T09:19:50.126Z,98469.69
2022-12-14T09:22:18.673Z,98470.53
2022-12-14T09:24:46.596Z,98476.44
2022-12-14T09:27:15.027Z,98474.38
2022-12-14T09:29:42.817Z,98475.06
2022-12-14T09:32:10.671Z,98464.72
2022-12-14T09:34:38.393Z,98477.78
2022-12-14T09:37:08.066Z,98474.97
2022-12-14T09:39:38.215Z,98472.38
2022-12-14T09:42:06.037Z,98481.88
2022-12-14T09:44:33.919Z,98487.03
2022-12-14T09:47:01.698Z,98486.00
2022-12-14T09:49:29.601Z,98487.59
2022-12-14T09:51:58.592Z,98482.97
2022-12-14T09:54:26.577Z,98480.09
2022-12-14T09:56:54.371Z,98478.25
2022-12-14T09:59:22.578Z,98477.31
2022-12-14T10:02:13.912Z,98471.91
2022-12-14T10:04:38.724Z,98469.22
2022-12-14T10:07:06.715Z,98470.81
2022-12-14T10:09:34.566Z,98474.19
2022-12-14T10:12:02.256Z,98471.38
2022-12-14T10:14:30.143Z,98474.75
2022-12-14T10:16:59.019Z,98475.50
2022-12-14T10:19:27.552Z,98471.88
2022-12-14T10:21:55.558Z,98468.22
2022-12-14T10:24:23.536Z,98462.91
2022-12-14T10:26:51.203Z,98461.16
2022-12-14T10:29:19.186Z,98464.53
2022-12-14T10:31:47.231Z,98463.50
2022-12-14T10:34:15.859Z,98453.72
2022-12-14T10:36:43.753Z,98456.06
2022-12-14T10:39:11.820Z,98456.81
2022-12-14T10:41:44.096Z,98457.53
2022-12-14T10:44:17.483Z,98465.09
2022-12-14T10:46:45.481Z,98459.88
2022-12-14T10:49:13.353Z,98458.03
2022-12-14T10:51:42.982Z,98456.09
2022-12-14T10:54:11.443Z,98454.97
2022-12-14T10:56:39.619Z,98451.06
2022-12-14T10:59:07.543Z,98455.06
2022-12-14T11:01:35.735Z,98456.38
2022-12-14T11:04:04.735Z,98452.66
2022-12-14T11:06:33.218Z,98448.84
2022-12-14T11:09:01.333Z,98448.56
2022-12-14T11:11:29.288Z,98442.22
2022-12-14T11:13:57.495Z,98439.41
2022-12-14T11:16:31.747Z,98437.34
2022-12-14T11:19:03.418Z,98429.13
2022-12-14T11:21:31.492Z,98438.47
2022-12-14T11:23:59.480Z,98434.81
2022-12-14T11:26:27.331Z,98433.66
2022-12-14T11:28:55.344Z,98425.66
2022-12-14T11:31:23.620Z,98424.41
2022-12-14T11:33:51.637Z,98421.50
2022-12-14T11:36:19.419Z,98416.84
2022-12-14T11:38:47.820Z,98414.88
2022-12-14T11:41:15.576Z,98412.81
2022-12-14T11:43:43.917Z,98414.19
2022-12-14T11:46:11.788Z,98413.91
2022-12-14T11:48:39.799Z,98414.53
2022-12-14T11:51:07.854Z,98421.38
2022-12-14T11:53:35.811Z,98423.03
2022-12-14T11:56:03.748Z,98419.47
2022-12-14T11:58:32.460Z,98420.94
2022-12-14T12:01:00.755Z,98428.63
2022-12-14T12:03:29.087Z,98418.78
2022-12-14T12:05:57.397Z,98420.38
2022-12-14T12:08:26.041Z,98429.78
2022-12-14T12:10:54.325Z,98420.81
2022-12-14T12:13:22.369Z,98425.03
2022-12-14T12:15:52.042Z,98418.63
2022-12-14T12:18:19.830Z,98414.03
2022-12-14T12:20:48.525Z,98419.16
2022-12-14T12:23:17.272Z,98421.59
2022-12-14T12:25:45.707Z,98415.44
2022-12-14T12:28:17.091Z,98417.84
2022-12-14T12:30:45.228Z,98419.41
2022-12-14T12:33:13.924Z,98422.97
2022-12-14T12:35:41.893Z,98423.16
2022-12-14T12:38:10.039Z,98419.81
2022-12-14T12:40:38.252Z,98415.59
2022-12-14T12:43:06.176Z,98418.53
2022-12-14T12:45:34.760Z,98418.09
2022-12-14T12:48:02.913Z,98417.63
2022-12-14T12:50:30.895Z,98427.03
2022-12-14T12:53:03.222Z,98421.75
2022-12-14T12:55:33.814Z,98417.50
2022-12-14T12:58:02.228Z,98413.88
2022-12-14T13:00:30.773Z,98424.06
2022-12-14T13:02:59.007Z,98432.41
2022-12-14T13:08:16.485Z,98430.97
2022-12-14T13:11:02.393Z,98425.38
2022-12-14T13:13:32.995Z,98431.19
2022-12-14T13:16:01.067Z,98430.63
2022-12-14T13:18:56.429Z,98433.50
2022-12-14T13:21:17.273Z,98434.63
2022-12-14T13:23:45.765Z,98441.72
2022-12-14T13:26:28.237Z,98440.06
2022-12-14T13:29:02.845Z,98437.91
2022-12-14T13:31:30.832Z,98443.31
2022-12-14T13:33:58.800Z,98447.81
2022-12-14T13:36:26.839Z,98436.69
2022-12-14T13:38:55.067Z,98451.81
2022-12-14T13:41:23.965Z,98451.44
2022-12-14T13:43:51.963Z,98449.19
2022-12-14T13:46:19.818Z,98450.13
2022-12-14T13:48:48.544Z,98452.44
2022-12-14T13:51:19.212Z,98448.63
2022-12-14T13:53:48.387Z,98441.81
2022-12-14T13:56:18.322Z,98448.03
2022-12-14T13:58:46.789Z,98449.22
2022-12-14T14:01:19.159Z,98446.19
2022-12-14T14:03:47.320Z,98439.06
2022-12-14T14:06:15.941Z,98440.19
2022-12-14T14:08:44.406Z,98438.53
2022-12-14T14:11:39.399Z,98447.97
2022-12-14T14:14:01.835Z,98439.88
2022-12-14T14:16:30.396Z,98445.72
2022-12-14T14:18:58.393Z,98448.00
2022-12-14T14:21:28.556Z,98450.91
2022-12-14T14:23:56.662Z,98461.88
2022-12-14T14:26:31.805Z,98461.81
2022-12-14T14:28:59.983Z,98461.03
2022-12-14T14:31:28.507Z,98462.06
2022-12-14T14:33:56.361Z,98476.66
2022-12-14T14:36:24.280Z,98466.13
2022-12-14T14:38:52.834Z,98476.31
2022-12-14T14:41:20.916Z,98473.47
2022-12-14T14:43:49.728Z,98473.97
2022-12-14T14:46:22.497Z,98478.81
2022-12-14T14:48:50.922Z,98480.31
2022-12-14T14:51:21.292Z,98500.81
2022-12-14T14:53:50.471Z,98491.00
2022-12-14T14:56:18.935Z,98486.28
2022-12-14T14:58:46.807Z,98489.56
2022-12-14T15:01:14.712Z,98477.84
2022-12-14T15:03:43.419Z,98494.88
2022-12-14T15:06:11.864Z,98493.53
2022-12-14T15:08:39.676Z,98500.03
2022-12-14T15:11:07.608Z,98494.41
2022-12-14T15:13:35.555Z,98500.00
2022-12-14T15:16:03.844Z,98508.91
2022-12-14T15:18:32.018Z,98517.00
2022-12-14T15:20:59.900Z,98515.59
2022-12-14T15:23:28.072Z,98521.06
2022-12-14T15:25:56.487Z,98522.41
2022-12-14T15:28:25.350Z,98518.44
2022-12-14T15:30:55.371Z,98524.09
2022-12-14T15:33:23.718Z,98527.94
2022-12-14T15:35:51.579Z,98530.88
2022-12-14T15:38:19.544Z,98529.25
2022-12-14T15:40:50.116Z,98536.41
2022-12-14T15:43:18.113Z,98543.56
2022-12-14T15:45:46.058Z,98542.00
2022-12-14T15:48:13.920Z,98548.50
2022-12-14T15:50:41.786Z,98547.19
2022-12-14T15:53:10.402Z,98548.38
2022-12-14T15:55:38.807Z,98561.72
2022-12-14T15:58:06.870Z,98556.13
2022-12-14T16:00:34.752Z,98562.44
2022-12-14T16:03:02.840Z,98562.66
2022-12-14T16:05:32.995Z,98562.03
2022-12-14T16:08:00.896Z,98563.09
2022-12-14T16:10:28.828Z,98561.59
2022-12-14T16:12:56.964Z,98560.03
2022-12-14T16:15:25.400Z,98559.34
2022-12-14T16:18:01.016Z,98569.06
2022-12-14T16:20:31.397Z,98570.16
2022-12-14T16:22:59.760Z,98570.38
2022-12-14T16:25:27.694Z,98584.47
2022-12-14T16:27:58.263Z,98584.69
2022-12-14T16:30:26.694Z,98582.25
2022-12-14T16:32:54.529Z,98588.44
2022-12-14T16:35:22.539Z,98585.97
2022-12-14T16:37:50.619Z,98583.47
2022-12-14T16:40:21.088Z,98586.19
2022-12-14T16:42:49.133Z,98589.88
2022-12-14T16:45:17.211Z,98602.19
2022-12-14T16:47:45.006Z,98601.50
2022-12-14T16:50:17.969Z,98598.19
2022-12-14T16:52:55.787Z,98601.78
2022-12-14T16:55:26.582Z,98606.22
2022-12-14T16:57:55.163Z,98619.28
2022-12-14T17:00:23.483Z,98617.69
2022-12-14T17:02:51.684Z,98613.25
2022-12-14T17:05:22.859Z,98614.84
2022-12-14T17:07:50.821Z,98618.25
2022-12-14T17:10:18.733Z,98613.88
2022-12-14T17:12:46.853Z,98614.63
2022-12-14T17:15:14.671Z,98623.16
2022-12-14T17:17:43.817Z,98628.16
2022-12-14T17:20:14.215Z,98628.72
2022-12-14T17:22:42.269Z,98630.31
2022-12-14T17:25:10.259Z,98627.72
2022-12-14T17:27:38.277Z,98631.25
2022-12-14T17:30:06.634Z,98637.50
2022-12-14T17:32:34.567Z,98643.56
2022-12-14T17:35:02.620Z,98636.59
2022-12-14T17:37:35.960Z,98640.09
2022-12-14T17:40:04.570Z,98649.59
2022-12-14T17:42:33.735Z,98651.28
2022-12-14T17:45:01.770Z,98652.91
2022-12-14T17:47:29.795Z,98653.66
2022-12-14T17:49:57.847Z,98645.03
2022-12-14T17:52:25.809Z,98656.28
2022-12-14T17:54:54.413Z,98657.19
2022-12-14T17:57:22.272Z,98656.38
2022-12-14T17:59:50.178Z,98653.75
2022-12-14T18:02:18.762Z,98654.69
2022-12-14T18:04:48.840Z,98652.91
2022-12-14T18:07:19.851Z,98653.66
2022-12-14T18:09:48.870Z,98652.84
2022-12-14T18:12:24.574Z,98655.56
2022-12-14T18:14:52.995Z,98660.09
2022-12-14T18:17:23.085Z,98658.63
2022-12-14T18:19:51.005Z,98660.72
2022-12-14T18:22:19.427Z,98654.13
2022-12-14T18:24:47.520Z,98653.50
2022-12-14T18:27:17.015Z,98660.59
2022-12-14T18:29:47.044Z,98658.22
2022-12-14T18:32:15.018Z,98663.69
2022-12-14T18:34:43.071Z,98655.25
2022-12-14T18:37:11.041Z,98658.97
2022-12-14T18:39:39.023Z,98659.94
2022-12-14T18:42:08.520Z,98665.16
2022-12-14T18:44:36.514Z,98672.09
2022-12-14T18:47:26.580Z,98665.16
2022-12-14T18:49:52.483Z,98669.63
2022-12-14T18:52:20.802Z,98667.25
2022-12-14T18:54:48.688Z,98677.84
2022-12-14T18:57:16.664Z,98672.78
2022-12-14T18:59:44.510Z,98669.53
2022-12-14T19:02:12.401Z,98671.53
2022-12-14T19:04:40.987Z,98683.84
2022-12-14T19:07:08.876Z,98689.94
2022-12-14T19:09:36.675Z,98685.75
2022-12-14T19:12:04.732Z,98691.00
2022-12-14T19:14:32.500Z,98689.38
2022-12-14T19:17:02.839Z,98691.13
2022-12-14T19:19:36.763Z,98686.72
2022-12-14T19:22:08.864Z,98696.16
2022-12-14T19:24:36.822Z,98700.44
2022-12-14T19:27:06.731Z,98700.44
2022-12-14T19:29:35.677Z,98704.06
2022-12-14T19:32:05.872Z,98702.53
2022-12-14T19:34:33.941Z,98709.59
2022-12-14T19:37:01.792Z,98718.38
2022-12-14T19:39:30.624Z,98703.88
2022-12-14T19:41:58.528Z,98710.09
2022-12-14T19:44:26.378Z,98712.72
2022-12-14T19:46:54.365Z,98717.03
2022-12-14T19:49:22.580Z,98717.03
2022-12-14T19:51:50.855Z,98717.00
2022-12-14T19:54:18.844Z,98720.31
2022-12-14T19:56:46.783Z,98713.28
2022-12-14T19:59:17.064Z,98713.13
2022-12-14T20:01:48.157Z,98720.78
2022-12-14T20:04:17.050Z,98716.41
2022-12-14T20:06:45.037Z,98727.72
2022-12-14T20:09:13.186Z,98714.09
2022-12-14T20:11:41.027Z,98721.28
2022-12-14T20:14:08.997Z,98734.56
2022-12-14T20:16:36.843Z,98746.00
2022-12-14T20:19:04.702Z,98742.84
2022-12-14T20:21:34.539Z,98743.13
2022-12-14T20:24:02.409Z,98746.81
2022-12-14T20:26:30.454Z,98749.66
2022-12-14T20:29:01.494Z,98753.34
2022-12-14T20:31:29.623Z,98761.31
2022-12-14T20:33:57.591Z,98756.31
2022-12-14T20:36:25.548Z,98758.19
2022-12-14T20:38:53.344Z,98758.38
2022-12-14T20:41:21.571Z,98761.19
2022-12-14T20:43:49.478Z,98761.31
2022-12-14T20:46:17.359Z,98770.91
2022-12-14T20:48:45.284Z,98775.34
2022-12-14T20:51:13.209Z,98772.84
2022-12-14T20:53:41.841Z,98772.94
2022-12-14T20:56:10.140Z,98780.84
2022-12-14T20:58:38.063Z,98781.75
2022-12-14T21:01:06.042Z,98777.56
2022-12-14T21:03:34.381Z,98780.34
2022-12-14T21:06:04.771Z,98792.53
2022-12-14T21:08:53.104Z,98788.31
2022-12-14T21:11:38.615Z,98805.72
2022-12-14T21:14:06.465Z,98804.25
2022-12-14T21:16:35.798Z,98818.25
2022-12-14T21:19:03.832Z,98820.13
2022-12-14T21:21:31.808Z,98825.50
2022-12-14T21:23:59.619Z,98823.09
2022-12-14T21:26:27.970Z,98828.34
2022-12-14T21:28:56.709Z,98823.28
2022-12-14T21:31:24.632Z,98825.94
2022-12-14T21:33:52.640Z,98828.66
2022-12-14T21:36:21.789Z,98826.97
2022-12-14T21:38:49.663Z,98834.72
2022-12-14T21:41:35.077Z,98827.00
2022-12-14T21:44:03.068Z,98833.13
2022-12-14T21:46:31.142Z,98832.31
2022-12-14T21:48:59.282Z,98827.94
2022-12-14T21:51:27.166Z,98820.00
2022-12-14T21:54:01.277Z,98832.72
2022-12-14T21:56:46.938Z,98830.75
2022-12-14T21:59:16.295Z,98834.97
2022-12-14T22:01:44.315Z,98848.84
2022-12-14T22:04:12.187Z,98849.84
2022-12-14T22:06:40.175Z,98851.78
2022-12-14T22:09:07.964Z,98855.38
2022-12-14T22:11:36.524Z,98850.38
2022-12-14T22:14:04.532Z,98860.88
2022-12-14T22:16:33.144Z,98850.69
2022-12-14T22:19:01.266Z,98851.81
2022-12-14T22:21:29.282Z,98844.13
2022-12-14T22:23:57.012Z,98851.22
2022-12-14T22:26:24.736Z,98851.38
2022-12-14T22:28:52.948Z,98860.00
2022-12-14T22:31:20.876Z,98854.72
2022-12-14T22:33:49.680Z,98841.63
2022-12-14T22:36:17.639Z,98838.97
2022-12-14T22:38:45.362Z,98844.94
2022-12-14T22:41:13.421Z,98839.69
2022-12-14T22:43:41.496Z,98840.50
2022-12-14T22:46:09.396Z,98840.31
2022-12-14T22:48:38.772Z,98833.25
2022-12-14T22:51:06.973Z,98848.59
2022-12-14T22:53:35.290Z,98845.00
2022-12-14T22:56:03.121Z,98840.53
2022-12-14T22:58:31.508Z,98841.19
2022-12-14T23:01:00.177Z,98834.94
2022-12-14T23:03:28.896Z,98835.56
2022-12-14T23:06:01.966Z,98834.50
2022-12-14T23:08:30.086Z,98838.72
2022-12-14T23:11:15.372Z,98844.69
2022-12-14T23:14:00.374Z,98846.47
2022-12-14T23:16:49.921Z,98847.53
2022-12-14T23:19:35.108Z,98844.47
2022-12-14T23:22:20.066Z,98850.09
2022-12-14T23:25:05.495Z,98858.06
2022-12-14T23:27:51.460Z,98865.16
2022-12-14T23:30:36.464Z,98859.38
2022-12-14T23:33:21.577Z,98861.50
2022-12-14T23:36:06.430Z,98858.34
2022-12-14T23:38:52.068Z,98856.84
2022-12-14T23:41:37.022Z,98865.69
2022-12-14T23:44:22.022Z,98855.53
2022-12-14T23:47:07.221Z,98856.53
2022-12-14T23:49:53.385Z,98860.16
2022-12-14T23:52:38.409Z,98871.47
2022-12-14T23:55:23.357Z,98866.41
2022-12-14T23:58:08.373Z,98858.66
